createdAt,value
2023-03-29T00:01:35.177Z,28.05
2023-03-29T00:02:14.744Z,28.25
2023-03-29T00:05:14.686Z,30.42
2023-03-29T00:07:14.695Z,27.81
2023-03-29T00:09:14.647Z,27.33
2023-03-29T00:10:14.627Z,28.65
2023-03-29T00:11:14.630Z,25.54
2023-03-29T00:14:14.613Z,25.51
2023-03-29T00:15:14.614Z,28.26
2023-03-29T00:18:14.591Z,32.18
2023-03-29T00:19:14.595Z,26.55
2023-03-29T00:23:14.558Z,28.82
2023-03-29T00:25:14.538Z,28.50
2023-03-29T00:26:14.600Z,27.59
2023-03-29T00:27:14.575Z,27.57
2023-03-29T00:29:14.501Z,28.23
2023-03-29T00:30:14.487Z,31.07
2023-03-29T00:33:14.459Z,29.34
2023-03-29T00:34:14.459Z,25.63
2023-03-29T00:36:14.488Z,29.94
2023-03-29T00:37:14.450Z,31.96
2023-03-29T00:39:14.425Z,27.38
2023-03-29T00:41:14.403Z,31.02
2023-03-29T00:43:14.383Z,31.74
2023-03-29T00:46:14.409Z,31.26
2023-03-29T00:48:14.327Z,30.73
2023-03-29T00:49:14.317Z,29.26
2023-03-29T00:50:14.340Z,28.09
2023-03-29T00:52:14.272Z,31.45
2023-03-29T00:53:14.254Z,31.16
2023-03-29T00:57:14.261Z,32.41
2023-03-29T00:58:14.221Z,29.43
2023-03-29T01:01:14.178Z,32.00
2023-03-29T01:02:14.252Z,31.44
2023-03-29T01:03:14.211Z,29.35
2023-03-29T01:04:14.138Z,27.63
2023-03-29T01:08:14.089Z,31.17
2023-03-29T01:11:14.063Z,30.39
2023-03-29T01:13:14.034Z,32.18
2023-03-29T01:14:14.031Z,29.04
2023-03-29T01:17:14.012Z,28.40
2023-03-29T01:19:13.989Z,27.88
2023-03-29T01:22:13.982Z,31.43
2023-03-29T01:23:14.012Z,27.86
2023-03-29T01:25:13.919Z,30.95
2023-03-29T01:28:13.898Z,31.48
2023-03-29T01:29:13.881Z,27.98
2023-03-29T01:30:13.886Z,28.95
2023-03-29T01:34:13.960Z,28.66
2023-03-29T01:35:13.803Z,31.19
2023-03-29T01:38:13.769Z,30.45
2023-03-29T01:39:13.744Z,28.99
2023-03-29T01:43:13.693Z,27.80
2023-03-29T01:44:13.691Z,28.63
2023-03-29T01:45:13.682Z,29.85
2023-03-29T01:46:13.722Z,30.95
2023-03-29T01:47:13.683Z,27.19
2023-03-29T01:50:13.628Z,28.73
2023-03-29T01:53:13.565Z,27.78
2023-03-29T01:54:13.555Z,31.28
2023-03-29T01:55:13.543Z,26.46
2023-03-29T01:56:13.528Z,32.40
2023-03-29T02:00:13.494Z,29.12
2023-03-29T02:01:13.510Z,28.95
2023-03-29T02:04:13.511Z,30.18
2023-03-29T02:05:13.438Z,29.74
2023-03-29T02:06:13.420Z,28.42
2023-03-29T02:10:13.382Z,32.16
2023-03-29T02:12:13.367Z,29.83
2023-03-29T02:14:13.357Z,31.84
2023-03-29T02:15:13.353Z,29.49
2023-03-29T02:17:13.326Z,30.26
2023-03-29T02:18:13.367Z,31.75
2023-03-29T02:21:13.304Z,31.17
2023-03-29T02:23:13.305Z,34.07
2023-03-29T02:25:13.301Z,29.80
2023-03-29T02:26:13.297Z,29.61
2023-03-29T02:29:13.279Z,28.47
2023-03-29T02:30:13.286Z,30.77
2023-03-29T02:31:13.317Z,30.97
2023-03-29T02:32:13.280Z,28.92
2023-03-29T02:33:13.280Z,26.11
2023-03-29T02:37:13.250Z,28.43
2023-03-29T02:38:13.299Z,29.10
2023-03-29T02:40:13.271Z,29.66
2023-03-29T02:41:13.227Z,25.01
2023-03-29T02:42:13.235Z,29.63
2023-03-29T02:43:13.208Z,30.28
2023-03-29T02:47:13.162Z,27.87
2023-03-29T02:48:13.140Z,26.37
2023-03-29T02:51:13.104Z,28.20
2023-03-29T02:54:13.047Z,30.95
2023-03-29T02:57:13.081Z,24.02
2023-03-29T02:58:13.016Z,23.19
2023-03-29T03:00:12.999Z,22.26
2023-03-29T03:03:13.129Z,0.00
2023-03-29T03:04:12.998Z,0.00
2023-03-29T03:07:12.926Z,0.00
2023-03-29T03:08:12.942Z,0.00
2023-03-29T03:11:12.905Z,0.00
2023-03-29T03:12:12.912Z,0.00
2023-03-29T03:13:12.912Z,0.00
2023-03-29T03:14:12.897Z,0.00
2023-03-29T03:18:12.867Z,0.00
2023-03-29T03:19:12.844Z,12.65
2023-03-29T03:22:12.824Z,27.34
2023-03-29T03:23:12.836Z,26.65
2023-03-29T03:25:12.818Z,26.32
2023-03-29T03:27:12.800Z,26.02
2023-03-29T03:28:12.799Z,25.61
2023-03-29T03:31:12.826Z,25.00
2023-03-29T03:35:12.772Z,25.16
2023-03-29T03:38:12.786Z,25.24
2023-03-29T03:39:12.777Z,25.00
2023-03-29T03:40:12.786Z,25.00
2023-03-29T03:44:12.760Z,25.00
2023-03-29T03:45:12.724Z,25.00
2023-03-29T03:46:12.774Z,25.70
2023-03-29T03:49:12.698Z,25.20
2023-03-29T03:52:12.695Z,25.90
2023-03-29T03:56:12.666Z,27.00
2023-03-29T03:57:12.753Z,25.00
2023-03-29T03:58:12.667Z,27.06
2023-03-29T03:59:12.678Z,25.00
2023-03-29T04:05:12.647Z,46.66
2023-03-29T04:06:12.646Z,37.27
2023-03-29T04:07:12.630Z,27.57
2023-03-29T04:09:12.616Z,25.00
2023-03-29T04:14:12.610Z,52.70
2023-03-29T04:15:12.599Z,37.94
2023-03-29T04:16:12.636Z,25.76
2023-03-29T04:17:12.577Z,28.31
2023-03-29T04:18:12.781Z,25.00
2023-03-29T04:23:12.547Z,9.27
2023-03-29T04:25:12.593Z,26.06
2023-03-29T04:27:12.548Z,55.89
2023-03-29T04:29:12.537Z,122.70
2023-03-29T04:32:12.536Z,232.06
2023-03-29T04:36:12.524Z,249.58
2023-03-29T04:37:12.508Z,231.13
2023-03-29T04:38:12.509Z,196.78
2023-03-29T04:41:12.483Z,207.86
2023-03-29T04:42:12.492Z,222.07
2023-03-29T04:44:12.513Z,214.87
2023-03-29T04:48:12.489Z,124.93
2023-03-29T04:51:12.417Z,95.16
2023-03-29T04:52:12.427Z,70.78
2023-03-29T04:53:12.423Z,27.36
2023-03-29T04:54:12.402Z,15.50
2023-03-29T04:55:12.406Z,10.35
2023-03-29T04:58:12.404Z,0.00
2023-03-29T05:00:12.405Z,0.00
2023-03-29T05:03:12.430Z,16.18
2023-03-29T05:04:12.883Z,11.54
2023-03-29T05:05:12.415Z,7.10
2023-03-29T05:06:12.384Z,4.61
2023-03-29T05:10:12.395Z,27.18
2023-03-29T05:11:12.400Z,11.14
2023-03-29T05:13:12.416Z,25.00
2023-03-29T05:14:12.403Z,31.87
2023-03-29T05:15:12.424Z,41.25
2023-03-29T05:17:12.434Z,64.19
2023-03-29T05:18:12.477Z,77.60
2023-03-29T05:19:12.430Z,91.75
2023-03-29T05:23:12.412Z,142.89
2023-03-29T05:26:12.405Z,146.51
2023-03-29T05:28:12.391Z,152.57
2023-03-29T05:29:12.397Z,162.43
2023-03-29T05:30:12.453Z,177.01
2023-03-29T05:34:12.389Z,212.70
2023-03-29T05:37:12.526Z,274.51
2023-03-29T05:38:12.364Z,211.02
2023-03-29T05:40:12.377Z,245.94
2023-03-29T05:45:12.380Z,257.39
2023-03-29T05:46:12.403Z,302.74
2023-03-29T05:49:12.343Z,285.38
2023-03-29T05:53:12.325Z,145.47
2023-03-29T05:54:12.294Z,146.13
2023-03-29T05:56:12.290Z,158.33
2023-03-29T05:57:12.397Z,171.12
2023-03-29T06:00:12.263Z,224.64
2023-03-29T06:01:12.265Z,243.55
2023-03-29T06:03:20.251Z,251.10
2023-03-29T06:04:13.367Z,251.53
2023-03-29T06:05:12.234Z,253.58
2023-03-29T06:06:12.241Z,257.89
2023-03-29T06:07:12.272Z,267.50
2023-03-29T06:09:12.213Z,261.40
2023-03-29T06:10:12.201Z,250.00
2023-03-29T06:14:12.165Z,240.36
2023-03-29T06:15:12.184Z,241.29
2023-03-29T06:16:12.147Z,241.97
2023-03-29T06:17:12.178Z,246.89
2023-03-29T06:18:12.232Z,250.00
2023-03-29T06:19:12.150Z,249.82
2023-03-29T06:20:12.133Z,250.00
2023-03-29T06:21:12.821Z,249.74
2023-03-29T06:24:12.108Z,247.51
2023-03-29T06:25:12.115Z,245.36
2023-03-29T06:26:12.130Z,241.93
2023-03-29T06:28:12.077Z,244.81
2023-03-29T06:29:12.087Z,240.28
2023-03-29T06:31:12.138Z,250.00
2023-03-29T06:35:12.042Z,248.65
2023-03-29T06:37:11.996Z,247.70
2023-03-29T06:38:11.993Z,250.00
2023-03-29T06:40:11.968Z,249.15
2023-03-29T06:45:11.946Z,250.46
2023-03-29T06:46:12.253Z,250.78
2023-03-29T06:49:11.916Z,250.25
2023-03-29T06:50:11.920Z,249.55
2023-03-29T06:51:11.917Z,250.42
2023-03-29T06:55:11.856Z,152.32
2023-03-29T06:58:11.866Z,145.39
2023-03-29T06:59:11.833Z,155.68
2023-03-29T07:01:11.846Z,160.14
2023-03-29T07:02:11.863Z,160.13
2023-03-29T07:03:11.845Z,171.00
2023-03-29T07:04:11.859Z,172.63
2023-03-29T07:08:11.791Z,180.13
2023-03-29T07:09:11.745Z,184.90
2023-03-29T07:12:11.785Z,192.71
2023-03-29T07:13:11.716Z,191.42
2023-03-29T07:14:11.713Z,191.50
2023-03-29T07:15:11.709Z,190.37
2023-03-29T07:16:11.779Z,198.26
2023-03-29T07:17:11.689Z,206.61
2023-03-29T07:19:11.671Z,208.68
2023-03-29T07:23:11.861Z,219.21
2023-03-29T07:25:11.617Z,226.27
2023-03-29T07:26:11.615Z,234.61
2023-03-29T07:27:11.612Z,239.54
2023-03-29T07:29:11.590Z,248.37
2023-03-29T07:30:11.588Z,242.89
2023-03-29T07:32:11.586Z,250.19
2023-03-29T07:34:11.521Z,248.08
2023-03-29T07:37:11.486Z,234.59
2023-03-29T07:38:11.463Z,250.00
2023-03-29T07:40:11.449Z,253.83
2023-03-29T07:43:11.407Z,249.84
2023-03-29T07:47:11.388Z,249.85
2023-03-29T07:48:11.368Z,249.26
2023-03-29T07:49:11.330Z,248.19
2023-03-29T07:50:11.347Z,248.81
2023-03-29T07:51:11.314Z,249.80
2023-03-29T07:56:11.232Z,242.95
2023-03-29T07:57:11.294Z,241.17
2023-03-29T07:59:11.189Z,234.08
2023-03-29T08:00:11.181Z,233.12
2023-03-29T08:01:14.193Z,231.34
2023-03-29T08:02:11.139Z,228.97
2023-03-29T08:05:11.126Z,223.11
2023-03-29T08:09:11.035Z,216.78
2023-03-29T08:10:11.022Z,216.97
2023-03-29T08:11:11.018Z,216.19
2023-03-29T08:12:10.993Z,216.01
2023-03-29T08:18:10.922Z,212.93
2023-03-29T08:19:10.878Z,210.13
2023-03-29T08:21:10.839Z,206.65
2023-03-29T08:22:10.813Z,207.75
2023-03-29T08:23:10.795Z,210.02
2023-03-29T08:27:10.744Z,220.13
2023-03-29T08:29:10.693Z,219.90
2023-03-29T08:31:10.682Z,221.00
2023-03-29T08:32:10.631Z,217.39
2023-03-29T08:33:10.657Z,223.07
2023-03-29T08:34:10.585Z,230.41
2023-03-29T08:39:10.512Z,228.38
2023-03-29T08:40:10.492Z,221.54
2023-03-29T08:42:10.498Z,217.44
2023-03-29T08:44:10.434Z,205.98
2023-03-29T08:46:10.486Z,204.79
2023-03-29T08:50:10.357Z,198.98
2023-03-29T08:52:10.321Z,202.63
2023-03-29T08:53:10.326Z,207.21
2023-03-29T08:57:10.296Z,210.58
2023-03-29T08:58:10.275Z,210.58
2023-03-29T08:59:10.245Z,210.82
2023-03-29T09:01:10.229Z,210.81
2023-03-29T09:02:10.216Z,212.50
2023-03-29T09:03:10.280Z,216.74
2023-03-29T09:07:10.144Z,241.07
2023-03-29T09:08:10.146Z,239.24
2023-03-29T09:09:10.116Z,240.94
2023-03-29T09:11:10.085Z,241.37
2023-03-29T09:13:10.062Z,238.87
2023-03-29T09:14:10.055Z,239.68
2023-03-29T09:16:10.068Z,239.39
2023-03-29T09:20:09.964Z,229.24
2023-03-29T09:21:09.941Z,229.94
2023-03-29T09:22:09.917Z,226.41
2023-03-29T09:24:09.899Z,227.62
2023-03-29T09:25:09.908Z,225.37
2023-03-29T09:26:09.868Z,223.81
2023-03-29T09:27:09.871Z,225.90
2023-03-29T09:30:09.820Z,221.63
2023-03-29T09:31:09.879Z,223.12
2023-03-29T09:33:09.872Z,222.92
2023-03-29T09:34:09.791Z,222.31
2023-03-29T09:35:09.780Z,229.22
2023-03-29T09:36:09.790Z,229.68
2023-03-29T09:38:09.713Z,230.57
2023-03-29T09:40:09.691Z,222.43
2023-03-29T09:45:09.632Z,219.45
2023-03-29T09:46:09.615Z,212.93
2023-03-29T09:48:09.627Z,204.47
2023-03-29T09:53:09.529Z,182.32
2023-03-29T09:54:09.510Z,175.97
2023-03-29T09:55:09.499Z,172.55
2023-03-29T09:56:09.507Z,170.36
2023-03-29T09:58:09.484Z,164.75
2023-03-29T10:01:09.583Z,158.37
2023-03-29T10:04:09.456Z,154.31
2023-03-29T10:05:09.384Z,152.15
2023-03-29T10:06:09.370Z,149.49
2023-03-29T10:07:09.356Z,147.81
2023-03-29T10:11:09.295Z,146.07
2023-03-29T10:14:09.264Z,144.91
2023-03-29T10:15:16.686Z,143.42
2023-03-29T10:16:10.250Z,143.42
2023-03-29T10:18:09.193Z,143.60
2023-03-29T10:20:10.170Z,140.91
2023-03-29T10:24:09.063Z,141.61
2023-03-29T10:26:09.045Z,144.27
2023-03-29T10:29:09.006Z,153.50
2023-03-29T10:30:08.992Z,158.12
2023-03-29T10:32:08.999Z,165.45
2023-03-29T10:36:08.983Z,180.60
2023-03-29T10:39:08.881Z,189.67
2023-03-29T10:40:08.862Z,192.66
2023-03-29T10:41:08.835Z,196.06
2023-03-29T10:42:08.820Z,198.01
2023-03-29T10:43:08.805Z,199.87
2023-03-29T10:44:08.801Z,201.98
2023-03-29T10:45:08.776Z,204.06
2023-03-29T10:50:08.717Z,218.10
2023-03-29T10:51:08.679Z,221.20
2023-03-29T10:52:08.710Z,223.13
2023-03-29T10:53:08.654Z,225.34
2023-03-29T10:54:08.646Z,226.71
2023-03-29T10:55:08.650Z,228.33
2023-03-29T11:01:08.531Z,240.37
2023-03-29T11:02:08.505Z,240.94
2023-03-29T11:03:08.631Z,243.42
2023-03-29T11:06:08.462Z,245.92
2023-03-29T11:07:08.462Z,246.36
2023-03-29T11:10:08.388Z,252.36
2023-03-29T11:12:15.628Z,249.76
2023-03-29T11:13:09.331Z,249.85
2023-03-29T11:14:08.322Z,250.15
2023-03-29T11:16:08.348Z,251.84
2023-03-29T11:18:08.265Z,249.47
2023-03-29T11:21:10.744Z,249.43
2023-03-29T11:22:08.180Z,249.47
2023-03-29T11:25:08.124Z,249.39
2023-03-29T11:26:08.162Z,249.37
2023-03-29T11:28:08.064Z,249.74
2023-03-29T11:30:08.032Z,249.98
2023-03-29T11:33:07.994Z,249.74
2023-03-29T11:34:07.963Z,249.30
2023-03-29T11:35:07.978Z,249.77
2023-03-29T11:36:07.997Z,249.62
2023-03-29T11:39:07.878Z,249.65
2023-03-29T11:41:07.854Z,250.00
2023-03-29T11:43:07.813Z,244.61
2023-03-29T11:47:07.741Z,247.35
2023-03-29T11:49:07.759Z,244.82
2023-03-29T11:50:07.761Z,239.58
2023-03-29T11:51:07.691Z,235.62
2023-03-29T11:56:07.605Z,225.77
2023-03-29T11:58:07.569Z,224.27
2023-03-29T11:59:07.626Z,223.84
2023-03-29T12:00:07.528Z,221.50
2023-03-29T12:02:07.593Z,219.05
2023-03-29T12:03:07.538Z,218.01
2023-03-29T12:08:07.410Z,208.27
2023-03-29T12:09:07.394Z,206.91
2023-03-29T12:11:07.349Z,204.11
2023-03-29T12:12:07.342Z,201.95
2023-03-29T12:13:07.312Z,201.87
2023-03-29T12:15:07.286Z,197.68
2023-03-29T12:20:07.201Z,192.34
2023-03-29T12:21:07.293Z,193.11
2023-03-29T12:22:07.168Z,191.08
2023-03-29T12:24:07.136Z,193.31
2023-03-29T12:27:07.073Z,190.88
2023-03-29T12:28:07.069Z,192.38
2023-03-29T12:30:07.044Z,195.32
2023-03-29T12:33:07.031Z,198.76
2023-03-29T12:34:06.965Z,199.29
2023-03-29T12:35:06.955Z,182.51
2023-03-29T12:39:06.883Z,95.07
2023-03-29T12:41:06.854Z,59.46
2023-03-29T12:43:06.829Z,48.75
2023-03-29T12:44:08.355Z,38.51
2023-03-29T12:46:06.813Z,25.73
2023-03-29T12:47:06.769Z,21.47
2023-03-29T12:49:06.745Z,14.50
2023-03-29T12:50:06.730Z,6.37
2023-03-29T12:51:06.730Z,7.00
2023-03-29T12:52:06.718Z,3.67
2023-03-29T12:53:06.717Z,11.57
2023-03-29T12:54:06.694Z,14.38
2023-03-29T12:55:06.683Z,21.92
2023-03-29T12:56:06.671Z,19.70
2023-03-29T12:57:06.722Z,22.17
2023-03-29T13:00:56.317Z,25.00
2023-03-29T13:01:56.432Z,25.00
2023-03-29T13:02:56.355Z,25.00
2023-03-29T13:03:56.277Z,25.00
2023-03-29T13:04:56.335Z,25.00
2023-03-29T13:05:56.268Z,8.71
2023-03-29T13:06:56.292Z,0.00
2023-03-29T13:07:56.268Z,0.00
2023-03-29T13:08:56.288Z,0.00
2023-03-29T13:09:56.238Z,43.34
2023-03-29T13:10:56.245Z,30.28
2023-03-29T13:11:56.250Z,43.54
2023-03-29T13:12:56.231Z,62.43
2023-03-29T13:13:56.228Z,96.47
2023-03-29T13:14:56.226Z,141.47
2023-03-29T13:15:56.281Z,104.13
2023-03-29T13:16:57.176Z,93.85
2023-03-29T13:17:56.240Z,74.39
2023-03-29T13:18:56.219Z,103.74
2023-03-29T13:19:56.194Z,112.91
2023-03-29T13:20:56.227Z,122.94
2023-03-29T13:21:56.200Z,164.39
2023-03-29T13:22:56.181Z,196.41
2023-03-29T13:23:56.164Z,175.53
2023-03-29T13:24:56.156Z,204.11
2023-03-29T13:25:56.159Z,221.65
2023-03-29T13:26:56.167Z,296.46
2023-03-29T13:27:56.172Z,379.90
2023-03-29T13:28:58.278Z,408.80
2023-03-29T13:29:56.114Z,409.19
2023-03-29T13:30:56.137Z,410.47
2023-03-29T13:31:56.090Z,400.41
2023-03-29T13:32:56.147Z,320.24
2023-03-29T13:33:56.074Z,313.88
2023-03-29T13:34:56.078Z,292.11
2023-03-29T13:35:56.079Z,261.87
2023-03-29T13:36:56.042Z,236.17
2023-03-29T13:37:56.021Z,217.67
2023-03-29T13:38:56.020Z,218.05
2023-03-29T13:39:56.141Z,205.26
2023-03-29T13:40:56.953Z,204.36
2023-03-29T13:41:56.183Z,182.63
2023-03-29T13:42:56.240Z,169.35
2023-03-29T13:43:56.235Z,165.17
2023-03-29T13:44:56.237Z,160.85
2023-03-29T13:45:56.259Z,152.30
2023-03-29T13:46:56.334Z,144.75
2023-03-29T13:48:04.992Z,158.34
2023-03-29T13:48:57.240Z,156.78
2023-03-29T13:49:56.230Z,158.52
2023-03-29T13:50:56.237Z,159.43
2023-03-29T13:51:56.226Z,164.74
2023-03-29T13:52:56.218Z,162.24
2023-03-29T13:53:56.223Z,166.25
2023-03-29T13:54:56.183Z,169.81
2023-03-29T13:55:56.180Z,161.40
2023-03-29T13:56:56.222Z,161.92
2023-03-29T13:57:56.184Z,174.00
2023-03-29T13:58:56.166Z,167.67
2023-03-29T13:59:56.141Z,159.56
2023-03-29T14:00:56.201Z,167.06
2023-03-29T14:01:56.161Z,177.96
2023-03-29T14:02:56.185Z,164.60
2023-03-29T14:03:56.139Z,148.65
2023-03-29T14:04:56.127Z,136.90
2023-03-29T14:05:56.097Z,138.81
2023-03-29T14:06:56.108Z,138.96
2023-03-29T14:07:56.096Z,139.26
2023-03-29T14:08:56.059Z,145.63
2023-03-29T14:09:56.061Z,153.93
2023-03-29T14:10:56.048Z,146.69
2023-03-29T14:11:56.027Z,157.78
2023-03-29T14:12:56.027Z,155.54
2023-03-29T14:13:56.022Z,156.42
2023-03-29T14:14:59.233Z,161.21
2023-03-29T14:15:56.003Z,157.60
2023-03-29T14:16:56.029Z,165.40
2023-03-29T14:17:57.177Z,189.12
2023-03-29T14:18:56.001Z,159.02
2023-03-29T14:19:55.958Z,193.74
2023-03-29T14:20:55.958Z,242.41
2023-03-29T14:21:55.955Z,317.32
2023-03-29T14:22:55.940Z,429.06
2023-03-29T14:23:55.909Z,165.79
2023-03-29T14:24:55.898Z,203.42
2023-03-29T14:25:55.893Z,270.07
2023-03-29T14:26:55.867Z,365.56
2023-03-29T14:27:55.906Z,487.04
2023-03-29T14:28:55.845Z,485.72
2023-03-29T14:29:55.836Z,457.54
2023-03-29T14:30:55.820Z,429.34
2023-03-29T14:31:55.852Z,410.13
2023-03-29T14:32:55.838Z,390.38
2023-03-29T14:33:55.770Z,369.57
2023-03-29T14:34:55.813Z,354.72
2023-03-29T14:35:55.840Z,339.96
2023-03-29T14:36:55.934Z,326.35
2023-03-29T14:37:55.847Z,311.04
2023-03-29T14:38:55.852Z,300.98
2023-03-29T14:39:55.867Z,289.79
2023-03-29T14:40:55.885Z,281.18
2023-03-29T14:41:55.884Z,269.84
2023-03-29T14:42:55.923Z,261.65
2023-03-29T14:43:55.912Z,253.19
2023-03-29T14:44:55.911Z,250.00
2023-03-29T14:45:55.955Z,248.95
2023-03-29T14:46:55.941Z,248.78
2023-03-29T14:47:55.972Z,248.44
2023-03-29T14:48:55.952Z,245.66
2023-03-29T14:49:55.969Z,246.91
2023-03-29T14:50:55.982Z,247.55
2023-03-29T14:51:55.981Z,249.40
2023-03-29T14:52:56.006Z,250.15
2023-03-29T14:53:56.004Z,249.69
2023-03-29T14:54:56.012Z,249.98
2023-03-29T14:55:56.018Z,249.95
2023-03-29T14:56:56.097Z,250.00
2023-03-29T14:57:56.055Z,249.31
2023-03-29T14:58:56.035Z,249.82
2023-03-29T14:59:56.041Z,249.55
2023-03-29T15:00:56.099Z,249.75
2023-03-29T15:01:56.053Z,249.86
2023-03-29T15:02:56.098Z,250.00
2023-03-29T15:03:56.074Z,250.03
2023-03-29T15:04:56.021Z,250.13
2023-03-29T15:05:56.014Z,250.63
2023-03-29T15:06:55.985Z,252.19
2023-03-29T15:07:55.993Z,254.56
2023-03-29T15:09:04.996Z,257.36
2023-03-29T15:09:56.946Z,250.42
2023-03-29T15:10:55.935Z,251.81
2023-03-29T15:11:55.910Z,254.67
2023-03-29T15:12:55.905Z,250.55
2023-03-29T15:13:55.877Z,252.38
2023-03-29T15:14:55.874Z,256.05
2023-03-29T15:15:55.875Z,261.35
2023-03-29T15:16:55.841Z,269.87
2023-03-29T15:17:55.860Z,262.78
2023-03-29T15:18:55.809Z,256.25
2023-03-29T15:19:55.796Z,250.60
2023-03-29T15:20:55.789Z,250.00
2023-03-29T15:21:55.786Z,249.78
2023-03-29T15:22:55.765Z,250.00
2023-03-29T15:23:55.756Z,249.72
2023-03-29T15:24:55.746Z,250.00
2023-03-29T15:25:55.724Z,249.61
2023-03-29T15:26:55.722Z,249.47
2023-03-29T15:27:55.706Z,250.14
2023-03-29T15:28:55.813Z,250.00
2023-03-29T15:29:55.682Z,249.79
2023-03-29T15:31:07.315Z,249.47
2023-03-29T15:31:56.687Z,249.53
2023-03-29T15:32:55.769Z,249.64
2023-03-29T15:33:55.647Z,249.55
2023-03-29T15:34:55.632Z,249.93
2023-03-29T15:35:55.654Z,250.61
2023-03-29T15:36:55.605Z,251.67
2023-03-29T15:37:55.569Z,253.41
2023-03-29T15:38:55.565Z,250.00
2023-03-29T15:39:55.548Z,249.86
2023-03-29T15:40:55.562Z,249.92
2023-03-29T15:41:55.510Z,250.03
2023-03-29T15:42:55.491Z,250.34
2023-03-29T15:43:55.482Z,250.90
2023-03-29T15:44:55.478Z,251.40
2023-03-29T15:45:55.458Z,249.37
2023-03-29T15:46:55.609Z,249.11
2023-03-29T15:47:55.429Z,249.77
2023-03-29T15:48:55.419Z,249.66
2023-03-29T15:49:55.392Z,250.00
2023-03-29T15:50:55.385Z,249.60
2023-03-29T15:51:55.354Z,249.66
2023-03-29T15:52:59.970Z,249.86
2023-03-29T15:53:56.334Z,249.68
2023-03-29T15:54:55.307Z,249.87
2023-03-29T15:55:55.291Z,250.09
2023-03-29T15:56:55.395Z,250.69
2023-03-29T15:57:55.319Z,251.93
2023-03-29T15:58:55.243Z,249.82
2023-03-29T15:59:55.234Z,249.70
2023-03-29T16:00:55.228Z,249.77
2023-03-29T16:01:55.246Z,249.16
2023-03-29T16:02:55.234Z,250.00
2023-03-29T16:03:55.171Z,249.56
2023-03-29T16:04:55.166Z,249.06
2023-03-29T16:05:55.138Z,249.95
2023-03-29T16:06:55.140Z,249.77
2023-03-29T16:07:55.116Z,250.00
2023-03-29T16:08:56.800Z,249.85
2023-03-29T16:09:55.090Z,249.95
2023-03-29T16:10:55.084Z,249.54
2023-03-29T16:11:55.081Z,248.99
2023-03-29T16:12:55.045Z,249.28
2023-03-29T16:13:55.093Z,249.86
2023-03-29T16:14:55.020Z,249.81
2023-03-29T16:15:55.012Z,249.49
2023-03-29T16:16:55.146Z,248.97
2023-03-29T16:17:55.005Z,249.57
2023-03-29T16:18:54.959Z,249.30
2023-03-29T16:19:54.932Z,249.24
2023-03-29T16:20:54.929Z,248.90
2023-03-29T16:21:54.905Z,249.82
2023-03-29T16:22:54.891Z,248.98
2023-03-29T16:23:54.907Z,248.75
2023-03-29T16:24:54.877Z,248.77
2023-03-29T16:25:54.862Z,249.51
2023-03-29T16:26:56.026Z,248.30
2023-03-29T16:27:54.841Z,249.56
2023-03-29T16:28:54.850Z,249.68
2023-03-29T16:29:54.838Z,249.01
2023-03-29T16:30:54.839Z,248.56
2023-03-29T16:31:54.941Z,249.25
2023-03-29T16:32:54.876Z,248.70
2023-03-29T16:33:54.856Z,249.10
2023-03-29T16:34:54.843Z,248.88
2023-03-29T16:35:54.877Z,248.40
2023-03-29T16:36:54.842Z,248.36
2023-03-29T16:37:54.844Z,248.98
2023-03-29T16:38:54.850Z,248.80
2023-03-29T16:39:54.853Z,249.32
2023-03-29T16:40:54.852Z,249.19
2023-03-29T16:41:54.832Z,249.27
2023-03-29T16:42:54.828Z,248.33
2023-03-29T16:43:54.836Z,248.29
2023-03-29T16:44:54.832Z,248.89
2023-03-29T16:45:54.897Z,248.60
2023-03-29T16:46:54.823Z,248.88
2023-03-29T16:47:54.845Z,248.58
2023-03-29T16:48:54.828Z,248.79
2023-03-29T16:49:54.816Z,248.41
2023-03-29T16:50:54.891Z,248.83
2023-03-29T16:51:55.217Z,248.50
2023-03-29T16:52:54.828Z,248.43
2023-03-29T16:53:54.836Z,248.84
2023-03-29T16:54:54.828Z,248.62
2023-03-29T16:55:54.836Z,248.11
2023-03-29T16:56:54.866Z,249.19
2023-03-29T16:57:54.845Z,248.78
2023-03-29T16:58:54.849Z,248.30
2023-03-29T16:59:54.947Z,248.81
2023-03-29T17:00:54.874Z,248.30
2023-03-29T17:01:54.942Z,249.00
2023-03-29T17:02:54.881Z,249.04
2023-03-29T17:03:54.889Z,248.19
2023-03-29T17:04:54.950Z,248.86
2023-03-29T17:05:54.889Z,248.47
2023-03-29T17:06:54.893Z,248.21
2023-03-29T17:07:54.906Z,248.22
2023-03-29T17:08:54.921Z,248.12
2023-03-29T17:09:55.013Z,247.81
2023-03-29T17:10:54.961Z,249.32
2023-03-29T17:11:54.970Z,248.35
2023-03-29T17:12:54.977Z,248.09
2023-03-29T17:13:54.984Z,248.65
2023-03-29T17:14:55.007Z,248.93
2023-03-29T17:15:55.053Z,248.55
2023-03-29T17:16:55.013Z,248.29
2023-03-29T17:17:55.013Z,248.35
2023-03-29T17:18:54.977Z,248.45
2023-03-29T17:19:54.995Z,248.17
2023-03-29T17:20:54.936Z,248.59
2023-03-29T17:21:54.917Z,248.14
2023-03-29T17:22:54.921Z,248.10
2023-03-29T17:23:54.893Z,248.80
2023-03-29T17:24:54.887Z,248.06
2023-03-29T17:25:54.871Z,248.67
2023-03-29T17:26:54.868Z,247.68
2023-03-29T17:27:54.859Z,248.07
2023-03-29T17:28:54.838Z,247.55
2023-03-29T17:29:54.881Z,247.73
2023-03-29T17:30:54.869Z,247.52
2023-03-29T17:31:54.795Z,247.91
2023-03-29T17:32:54.803Z,248.38
2023-03-29T17:33:54.767Z,248.40
2023-03-29T17:34:54.774Z,248.25
2023-03-29T17:35:54.780Z,248.07
2023-03-29T17:36:54.740Z,247.70
2023-03-29T17:37:54.727Z,247.74
2023-03-29T17:38:54.749Z,248.18
2023-03-29T17:39:54.704Z,248.06
2023-03-29T17:40:54.677Z,247.52
2023-03-29T17:41:54.678Z,247.31
2023-03-29T17:42:54.645Z,247.98
2023-03-29T17:43:54.645Z,247.59
2023-03-29T17:44:54.687Z,246.95
2023-03-29T17:45:54.634Z,247.33
2023-03-29T17:46:54.635Z,247.67
2023-03-29T17:47:54.694Z,247.86
2023-03-29T17:48:54.626Z,246.93
2023-03-29T17:49:54.672Z,247.39
2023-03-29T17:50:54.701Z,247.25
2023-03-29T17:51:54.723Z,247.32
2023-03-29T17:52:54.751Z,246.59
2023-03-29T17:53:54.791Z,247.31
2023-03-29T17:54:54.824Z,246.30
2023-03-29T17:55:54.825Z,247.27
2023-03-29T17:56:54.880Z,247.15
2023-03-29T17:57:54.884Z,247.05
2023-03-29T17:58:54.919Z,246.92
2023-03-29T17:59:54.960Z,246.28
2023-03-29T18:00:55.019Z,247.23
2023-03-29T18:01:55.042Z,246.46
2023-03-29T18:02:55.267Z,247.08
2023-03-29T18:03:55.093Z,246.82
2023-03-29T18:04:55.128Z,247.33
2023-03-29T18:05:55.167Z,246.87
2023-03-29T18:06:55.179Z,246.53
2023-03-29T18:07:55.215Z,246.87
2023-03-29T18:08:55.240Z,246.30
2023-03-29T18:09:55.284Z,245.74
2023-03-29T18:10:55.321Z,246.93
2023-03-29T18:11:55.358Z,246.78
2023-03-29T18:12:55.386Z,246.75
2023-03-29T18:13:55.419Z,246.05
2023-03-29T18:14:55.469Z,246.40
2023-03-29T18:15:55.509Z,246.30
2023-03-29T18:16:55.560Z,245.93
2023-03-29T18:17:55.601Z,246.37
2023-03-29T18:18:55.622Z,245.82
2023-03-29T18:19:55.669Z,246.32
2023-03-29T18:20:55.703Z,246.01
2023-03-29T18:21:55.737Z,246.30
2023-03-29T18:22:55.785Z,245.57
2023-03-29T18:23:57.005Z,246.28
2023-03-29T18:24:55.869Z,245.90
2023-03-29T18:25:55.860Z,246.05
2023-03-29T18:26:55.903Z,246.60
2023-03-29T18:27:55.944Z,246.62
2023-03-29T18:28:55.999Z,246.13
2023-03-29T18:29:55.969Z,246.16
2023-03-29T18:30:55.957Z,246.23
2023-03-29T18:31:56.032Z,246.21
2023-03-29T18:32:55.968Z,246.18
2023-03-29T18:33:55.932Z,246.15
2023-03-29T18:34:55.932Z,246.09
2023-03-29T18:35:55.996Z,246.03
2023-03-29T18:36:55.920Z,246.63
2023-03-29T18:37:55.916Z,246.26
2023-03-29T18:38:55.944Z,246.23
2023-03-29T18:39:55.906Z,246.43
2023-03-29T18:40:55.881Z,246.38
2023-03-29T18:41:55.932Z,246.01
2023-03-29T18:42:55.972Z,246.02
2023-03-29T18:43:56.016Z,245.77
2023-03-29T18:44:56.057Z,246.95
2023-03-29T18:45:56.155Z,245.85
2023-03-29T18:46:56.169Z,246.50
2023-03-29T18:47:56.246Z,245.93
2023-03-29T18:48:56.234Z,246.17